sensor_id;sensor_type;location;lat;lon;timestamp;pressure;altitude;pressure_sealevel;temperature;humidity
12536;BME280;6334;48.696;2.114;2023-01-27T00:01:49;100670.14;;;4.46;78.89
12536;BME280;6334;48.696;2.114;2023-01-27T00:04:18;100668.24;;;4.42;79.16
12536;BME280;6334;48.696;2.114;2023-01-27T00:06:48;100669.84;;;4.36;79.49
12536;BME280;6334;48.696;2.114;2023-01-27T00:09:19;100671.96;;;4.50;78.17
12536;BME280;6334;48.696;2.114;2023-01-27T00:11:49;100672.91;;;4.47;77.85
12536;BME280;6334;48.696;2.114;2023-01-27T00:14:38;100672.23;;;4.44;78.84
12536;BME280;6334;48.696;2.114;2023-01-27T00:17:08;100671.83;;;4.37;77.71
12536;BME280;6334;48.696;2.114;2023-01-27T00:19:39;100669.14;;;4.41;78.61
12536;BME280;6334;48.696;2.114;2023-01-27T00:22:09;100669.52;;;4.51;77.67
12536;BME280;6334;48.696;2.114;2023-01-27T00:24:58;100666.81;;;4.55;76.76
12536;BME280;6334;48.696;2.114;2023-01-27T00:27:28;100675.13;;;4.43;77.78
12536;BME280;6334;48.696;2.114;2023-01-27T00:29:59;100673.36;;;4.49;77.05
12536;BME280;6334;48.696;2.114;2023-01-27T00:32:33;100675.72;;;4.59;76.01
12536;BME280;6334;48.696;2.114;2023-01-27T00:35:21;100676.70;;;4.55;76.94
12536;BME280;6334;48.696;2.114;2023-01-27T00:37:52;100673.90;;;4.55;76.88
12536;BME280;6334;48.696;2.114;2023-01-27T00:40:22;100671.80;;;4.52;76.99
12536;BME280;6334;48.696;2.114;2023-01-27T00:42:53;100663.97;;;4.56;77.46
12536;BME280;6334;48.696;2.114;2023-01-27T00:45:23;100672.28;;;4.49;77.07
12536;BME280;6334;48.696;2.114;2023-01-27T00:48:12;100666.70;;;4.62;76.98
12536;BME280;6334;48.696;2.114;2023-01-27T00:50:42;100659.47;;;4.47;77.12
12536;BME280;6334;48.696;2.114;2023-01-27T00:53:12;100664.33;;;4.47;77.40
12536;BME280;6334;48.696;2.114;2023-01-27T00:55:42;100647.73;;;4.41;77.61
12536;BME280;6334;48.696;2.114;2023-01-27T00:58:12;100660.84;;;4.50;77.72
12536;BME280;6334;48.696;2.114;2023-01-27T01:00:43;100657.52;;;4.24;78.40
12536;BME280;6334;48.696;2.114;2023-01-27T01:03:15;100656.75;;;4.40;77.31
12536;BME280;6334;48.696;2.114;2023-01-27T01:05:45;100657.09;;;4.45;77.87
12536;BME280;6334;48.696;2.114;2023-01-27T01:08:16;100652.72;;;4.44;77.99
12536;BME280;6334;48.696;2.114;2023-01-27T01:10:45;100647.43;;;4.32;77.62
12536;BME280;6334;48.696;2.114;2023-01-27T01:13:16;100650.48;;;4.36;78.15
12536;BME280;6334;48.696;2.114;2023-01-27T01:15:46;100649.70;;;4.41;76.58
12536;BME280;6334;48.696;2.114;2023-01-27T01:18:17;100649.34;;;4.45;76.79
12536;BME280;6334;48.696;2.114;2023-01-27T01:20:47;100647.98;;;4.54;76.23
12536;BME280;6334;48.696;2.114;2023-01-27T01:23:18;100644.41;;;4.48;76.28
12536;BME280;6334;48.696;2.114;2023-01-27T01:25:52;100649.42;;;4.44;76.44
12536;BME280;6334;48.696;2.114;2023-01-27T01:28:22;100648.94;;;4.52;76.45
12536;BME280;6334;48.696;2.114;2023-01-27T01:30:52;100650.33;;;4.45;76.80
12536;BME280;6334;48.696;2.114;2023-01-27T01:33:22;100649.55;;;4.57;76.35
12536;BME280;6334;48.696;2.114;2023-01-27T01:35:53;100647.77;;;4.44;76.58
12536;BME280;6334;48.696;2.114;2023-01-27T01:38:23;100649.58;;;4.43;76.79
12536;BME280;6334;48.696;2.114;2023-01-27T01:40:54;100644.72;;;4.47;76.14
12536;BME280;6334;48.696;2.114;2023-01-27T01:43:24;100646.41;;;4.56;76.82
12536;BME280;6334;48.696;2.114;2023-01-27T01:45:58;100646.67;;;4.54;76.27
12536;BME280;6334;48.696;2.114;2023-01-27T01:48:39;100640.81;;;4.49;76.25
12536;BME280;6334;48.696;2.114;2023-01-27T01:51:10;100644.50;;;4.30;77.78
12536;BME280;6334;48.696;2.114;2023-01-27T01:53:46;100642.38;;;4.49;76.21
12536;BME280;6334;48.696;2.114;2023-01-27T01:56:15;100637.48;;;4.51;76.31
12536;BME280;6334;48.696;2.114;2023-01-27T01:58:44;100634.80;;;4.39;77.34
12536;BME280;6334;48.696;2.114;2023-01-27T02:01:14;100638.34;;;4.52;76.62
12536;BME280;6334;48.696;2.114;2023-01-27T02:03:46;100647.27;;;4.40;77.48
12536;BME280;6334;48.696;2.114;2023-01-27T02:06:15;100644.03;;;4.43;76.42
12536;BME280;6334;48.696;2.114;2023-01-27T02:08:45;100631.62;;;4.44;76.54
12536;BME280;6334;48.696;2.114;2023-01-27T02:11:16;100635.41;;;4.44;76.12
12536;BME280;6334;48.696;2.114;2023-01-27T02:13:46;100626.72;;;4.39;76.61
12536;BME280;6334;48.696;2.114;2023-01-27T02:16:17;100632.66;;;4.46;75.95
12536;BME280;6334;48.696;2.114;2023-01-27T02:18:47;100627.17;;;4.58;76.42
12536;BME280;6334;48.696;2.114;2023-01-27T02:21:18;100625.53;;;4.63;75.95
12536;BME280;6334;48.696;2.114;2023-01-27T02:23:55;100619.81;;;4.54;76.54
12536;BME280;6334;48.696;2.114;2023-01-27T02:26:37;100618.65;;;4.53;76.58
12536;BME280;6334;48.696;2.114;2023-01-27T02:29:07;100619.19;;;4.37;76.77
12536;BME280;6334;48.696;2.114;2023-01-27T02:31:36;100622.89;;;4.40;76.00
12536;BME280;6334;48.696;2.114;2023-01-27T02:34:15;100619.19;;;4.48;76.19
12536;BME280;6334;48.696;2.114;2023-01-27T02:36:57;100620.30;;;4.54;76.83
12536;BME280;6334;48.696;2.114;2023-01-27T02:39:19;100613.78;;;4.49;75.73
12536;BME280;6334;48.696;2.114;2023-01-27T02:41:50;100615.11;;;4.61;76.58
12536;BME280;6334;48.696;2.114;2023-01-27T02:44:19;100617.62;;;4.51;76.67
12536;BME280;6334;48.696;2.114;2023-01-27T02:46:49;100617.16;;;4.45;76.60
12536;BME280;6334;48.696;2.114;2023-01-27T02:49:19;100618.44;;;4.36;76.27
12536;BME280;6334;48.696;2.114;2023-01-27T02:51:50;100616.72;;;4.37;76.68
12536;BME280;6334;48.696;2.114;2023-01-27T02:54:21;100620.83;;;4.47;76.39
12536;BME280;6334;48.696;2.114;2023-01-27T02:56:51;100622.61;;;4.43;76.86
12536;BME280;6334;48.696;2.114;2023-01-27T02:59:21;100621.49;;;4.48;76.22
12536;BME280;6334;48.696;2.114;2023-01-27T03:01:52;100619.92;;;4.54;76.67
12536;BME280;6334;48.696;2.114;2023-01-27T03:04:22;100619.42;;;4.36;76.80
12536;BME280;6334;48.696;2.114;2023-01-27T03:06:53;100611.52;;;4.59;76.50
12536;BME280;6334;48.696;2.114;2023-01-27T03:09:23;100611.19;;;4.44;77.10
12536;BME280;6334;48.696;2.114;2023-01-27T03:11:55;100608.39;;;4.47;76.95
12536;BME280;6334;48.696;2.114;2023-01-27T03:14:43;100611.15;;;4.45;76.24
12536;BME280;6334;48.696;2.114;2023-01-27T03:17:32;100613.17;;;4.59;75.75
12536;BME280;6334;48.696;2.114;2023-01-27T03:20:21;100609.92;;;4.50;76.16
12536;BME280;6334;48.696;2.114;2023-01-27T03:22:51;100608.34;;;4.45;76.98
12536;BME280;6334;48.696;2.114;2023-01-27T03:25:21;100593.44;;;4.42;76.37
12536;BME280;6334;48.696;2.114;2023-01-27T03:27:52;100601.02;;;4.56;76.59
12536;BME280;6334;48.696;2.114;2023-01-27T03:30:22;100607.12;;;4.42;75.04
12536;BME280;6334;48.696;2.114;2023-01-27T03:32:53;100605.59;;;4.51;74.99
12536;BME280;6334;48.696;2.114;2023-01-27T03:35:23;100606.33;;;4.47;75.65
12536;BME280;6334;48.696;2.114;2023-01-27T03:37:53;100608.11;;;4.43;76.13
12536;BME280;6334;48.696;2.114;2023-01-27T03:40:42;100602.55;;;4.40;76.24
12536;BME280;6334;48.696;2.114;2023-01-27T03:43:31;100595.25;;;4.54;75.96
12536;BME280;6334;48.696;2.114;2023-01-27T03:46:20;100592.45;;;4.34;76.78
12536;BME280;6334;48.696;2.114;2023-01-27T03:48:53;100584.17;;;4.43;75.66
12536;BME280;6334;48.696;2.114;2023-01-27T03:51:20;100597.35;;;4.40;76.49
12536;BME280;6334;48.696;2.114;2023-01-27T03:53:50;100596.41;;;4.43;74.92
12536;BME280;6334;48.696;2.114;2023-01-27T03:56:20;100594.09;;;4.65;74.89
12536;BME280;6334;48.696;2.114;2023-01-27T03:58:51;100593.16;;;4.48;75.76
12536;BME280;6334;48.696;2.114;2023-01-27T04:01:22;100584.42;;;4.47;75.38
12536;BME280;6334;48.696;2.114;2023-01-27T04:03:52;100586.92;;;4.53;75.17
12536;BME280;6334;48.696;2.114;2023-01-27T04:06:41;100588.41;;;4.46;74.42
12536;BME280;6334;48.696;2.114;2023-01-27T04:09:32;100597.56;;;4.46;75.18
12536;BME280;6334;48.696;2.114;2023-01-27T04:12:04;100591.87;;;4.56;74.09
12536;BME280;6334;48.696;2.114;2023-01-27T04:14:35;100594.96;;;4.44;75.03
12536;BME280;6334;48.696;2.114;2023-01-27T04:17:14;100588.94;;;4.51;74.84
12536;BME280;6334;48.696;2.114;2023-01-27T04:19:44;100591.42;;;4.37;74.88
12536;BME280;6334;48.696;2.114;2023-01-27T04:22:14;100591.95;;;4.38;75.23
12536;BME280;6334;48.696;2.114;2023-01-27T04:24:44;100590.14;;;4.45;74.12
12536;BME280;6334;48.696;2.114;2023-01-27T04:27:14;100584.61;;;4.56;74.40
12536;BME280;6334;48.696;2.114;2023-01-27T04:29:45;100589.81;;;4.49;74.03
12536;BME280;6334;48.696;2.114;2023-01-27T04:32:15;100587.88;;;4.40;75.54
12536;BME280;6334;48.696;2.114;2023-01-27T04:34:46;100568.81;;;4.42;74.08
12536;BME280;6334;48.696;2.114;2023-01-27T04:37:16;100576.31;;;4.39;75.11
12536;BME280;6334;48.696;2.114;2023-01-27T04:39:47;100582.77;;;4.48;74.32
12536;BME280;6334;48.696;2.114;2023-01-27T04:42:17;100582.15;;;4.49;74.42
12536;BME280;6334;48.696;2.114;2023-01-27T04:44:48;100587.72;;;4.52;74.68
12536;BME280;6334;48.696;2.114;2023-01-27T04:47:18;100590.72;;;4.42;75.32
12536;BME280;6334;48.696;2.114;2023-01-27T04:49:49;100590.59;;;4.40;75.90
12536;BME280;6334;48.696;2.114;2023-01-27T04:52:19;100590.09;;;4.54;75.29
12536;BME280;6334;48.696;2.114;2023-01-27T04:54:50;100597.39;;;4.38;75.06
12536;BME280;6334;48.696;2.114;2023-01-27T04:57:20;100581.31;;;4.60;74.61
12536;BME280;6334;48.696;2.114;2023-01-27T04:59:50;100592.41;;;4.47;75.39
12536;BME280;6334;48.696;2.114;2023-01-27T05:02:21;100582.98;;;4.42;73.80
12536;BME280;6334;48.696;2.114;2023-01-27T05:04:51;100576.95;;;4.57;73.96
12536;BME280;6334;48.696;2.114;2023-01-27T05:07:22;100574.23;;;4.61;74.33
12536;BME280;6334;48.696;2.114;2023-01-27T05:09:52;100575.83;;;4.67;73.89
12536;BME280;6334;48.696;2.114;2023-01-27T05:12:23;100575.19;;;4.51;74.12
12536;BME280;6334;48.696;2.114;2023-01-27T05:14:55;100566.63;;;4.52;73.64
12536;BME280;6334;48.696;2.114;2023-01-27T05:17:29;100566.38;;;4.41;73.07
12536;BME280;6334;48.696;2.114;2023-01-27T05:19:56;100567.66;;;4.42;71.94
12536;BME280;6334;48.696;2.114;2023-01-27T05:22:26;100571.22;;;4.62;72.84
12536;BME280;6334;48.696;2.114;2023-01-27T05:24:57;100573.83;;;4.50;72.19
12536;BME280;6334;48.696;2.114;2023-01-27T05:27:27;100575.85;;;4.48;72.00
12536;BME280;6334;48.696;2.114;2023-01-27T05:29:58;100581.16;;;4.53;72.20
12536;BME280;6334;48.696;2.114;2023-01-27T05:32:29;100580.87;;;4.55;72.35
12536;BME280;6334;48.696;2.114;2023-01-27T05:35:00;100578.07;;;4.51;72.72
12536;BME280;6334;48.696;2.114;2023-01-27T05:37:31;100589.03;;;4.29;73.50
12536;BME280;6334;48.696;2.114;2023-01-27T05:40:02;100581.33;;;4.57;73.38
12536;BME280;6334;48.696;2.114;2023-01-27T05:42:32;100581.57;;;4.57;72.11
12536;BME280;6334;48.696;2.114;2023-01-27T05:45:03;100585.20;;;4.56;71.78
12536;BME280;6334;48.696;2.114;2023-01-27T05:47:33;100583.96;;;4.53;73.44
12536;BME280;6334;48.696;2.114;2023-01-27T05:50:04;100581.42;;;4.46;73.10
12536;BME280;6334;48.696;2.114;2023-01-27T05:52:34;100573.95;;;4.44;72.51
12536;BME280;6334;48.696;2.114;2023-01-27T05:55:05;100580.01;;;4.50;73.23
12536;BME280;6334;48.696;2.114;2023-01-27T05:57:35;100580.09;;;4.42;73.80
12536;BME280;6334;48.696;2.114;2023-01-27T06:00:06;100585.40;;;4.55;72.87
12536;BME280;6334;48.696;2.114;2023-01-27T06:02:36;100579.06;;;4.52;73.31
12536;BME280;6334;48.696;2.114;2023-01-27T06:05:07;100578.73;;;4.47;73.30
12536;BME280;6334;48.696;2.114;2023-01-27T06:07:37;100579.31;;;4.47;73.49
12536;BME280;6334;48.696;2.114;2023-01-27T06:10:08;100579.42;;;4.60;73.43
12536;BME280;6334;48.696;2.114;2023-01-27T06:12:38;100582.10;;;4.59;73.45
12536;BME280;6334;48.696;2.114;2023-01-27T06:15:09;100582.20;;;4.48;73.52
12536;BME280;6334;48.696;2.114;2023-01-27T06:17:39;100582.11;;;4.48;73.83
12536;BME280;6334;48.696;2.114;2023-01-27T06:20:10;100577.78;;;4.50;73.32
12536;BME280;6334;48.696;2.114;2023-01-27T06:22:40;100582.48;;;4.37;73.37
12536;BME280;6334;48.696;2.114;2023-01-27T06:25:11;100583.23;;;4.50;73.28
12536;BME280;6334;48.696;2.114;2023-01-27T06:27:41;100586.67;;;4.57;72.89
12536;BME280;6334;48.696;2.114;2023-01-27T06:30:12;100581.52;;;4.59;73.45
12536;BME280;6334;48.696;2.114;2023-01-27T06:32:41;100585.82;;;4.52;73.71
12536;BME280;6334;48.696;2.114;2023-01-27T06:35:12;100590.64;;;4.45;73.50
12536;BME280;6334;48.696;2.114;2023-01-27T06:37:42;100584.95;;;4.46;72.13
12536;BME280;6334;48.696;2.114;2023-01-27T06:40:13;100576.75;;;4.55;72.92
12536;BME280;6334;48.696;2.114;2023-01-27T06:42:43;100581.65;;;4.52;72.27
12536;BME280;6334;48.696;2.114;2023-01-27T06:45:14;100580.05;;;4.44;72.21
12536;BME280;6334;48.696;2.114;2023-01-27T06:47:44;100583.47;;;4.50;72.55
12536;BME280;6334;48.696;2.114;2023-01-27T06:50:14;100573.88;;;4.76;72.94
12536;BME280;6334;48.696;2.114;2023-01-27T06:52:45;100589.27;;;4.58;71.93
12536;BME280;6334;48.696;2.114;2023-01-27T06:55:15;100592.78;;;4.42;71.78
12536;BME280;6334;48.696;2.114;2023-01-27T06:57:46;100594.42;;;4.54;71.99
12536;BME280;6334;48.696;2.114;2023-01-27T07:00:16;100596.48;;;4.61;72.03
12536;BME280;6334;48.696;2.114;2023-01-27T07:02:47;100598.80;;;4.49;72.51
12536;BME280;6334;48.696;2.114;2023-01-27T07:05:18;100598.62;;;4.52;70.92
12536;BME280;6334;48.696;2.114;2023-01-27T07:07:50;100603.81;;;4.69;71.89
12536;BME280;6334;48.696;2.114;2023-01-27T07:10:20;100609.05;;;4.62;71.36
12536;BME280;6334;48.696;2.114;2023-01-27T07:12:51;100603.11;;;4.71;72.02
12536;BME280;6334;48.696;2.114;2023-01-27T07:15:21;100613.29;;;4.52;71.84
12536;BME280;6334;48.696;2.114;2023-01-27T07:17:52;100602.34;;;4.54;71.93
12536;BME280;6334;48.696;2.114;2023-01-27T07:20:22;100605.02;;;4.44;72.40
12536;BME280;6334;48.696;2.114;2023-01-27T07:22:56;100617.25;;;4.42;72.10
12536;BME280;6334;48.696;2.114;2023-01-27T07:25:26;100613.01;;;4.56;71.55
12536;BME280;6334;48.696;2.114;2023-01-27T07:27:56;100614.08;;;4.43;71.02
12536;BME280;6334;48.696;2.114;2023-01-27T07:30:27;100612.80;;;4.50;71.91
12536;BME280;6334;48.696;2.114;2023-01-27T07:33:04;100604.69;;;4.44;72.05
12536;BME280;6334;48.696;2.114;2023-01-27T07:35:37;100614.66;;;4.52;70.87
12536;BME280;6334;48.696;2.114;2023-01-27T07:38:07;100618.60;;;4.62;69.82
12536;BME280;6334;48.696;2.114;2023-01-27T07:40:38;100625.57;;;4.61;69.80
12536;BME280;6334;48.696;2.114;2023-01-27T07:43:08;100617.75;;;4.50;70.86
12536;BME280;6334;48.696;2.114;2023-01-27T07:45:39;100624.58;;;4.49;70.40
12536;BME280;6334;48.696;2.114;2023-01-27T07:48:09;100622.56;;;4.54;70.61
12536;BME280;6334;48.696;2.114;2023-01-27T07:50:40;100624.09;;;4.54;71.02
12536;BME280;6334;48.696;2.114;2023-01-27T07:53:10;100630.11;;;4.43;70.60
12536;BME280;6334;48.696;2.114;2023-01-27T07:55:40;100619.76;;;4.51;69.88
12536;BME280;6334;48.696;2.114;2023-01-27T07:58:11;100629.94;;;4.61;70.32
12536;BME280;6334;48.696;2.114;2023-01-27T08:00:41;100626.35;;;4.63;70.58
12536;BME280;6334;48.696;2.114;2023-01-27T08:03:24;100631.38;;;4.55;71.22
12536;BME280;6334;48.696;2.114;2023-01-27T08:05:53;100630.43;;;4.53;71.65
12536;BME280;6334;48.696;2.114;2023-01-27T08:08:24;100630.14;;;4.65;71.28
12536;BME280;6334;48.696;2.114;2023-01-27T08:10:58;100630.42;;;4.64;70.75
12536;BME280;6334;48.696;2.114;2023-01-27T08:13:26;100644.02;;;4.71;70.45
12536;BME280;6334;48.696;2.114;2023-01-27T08:15:57;100642.84;;;4.59;70.33
12536;BME280;6334;48.696;2.114;2023-01-27T08:18:27;100632.91;;;4.50;70.98
12536;BME280;6334;48.696;2.114;2023-01-27T08:21:01;100637.89;;;4.59;71.02
12536;BME280;6334;48.696;2.114;2023-01-27T08:23:31;100640.44;;;4.58;71.78
12536;BME280;6334;48.696;2.114;2023-01-27T08:26:01;100631.42;;;4.50;70.95
12536;BME280;6334;48.696;2.114;2023-01-27T08:28:31;100637.55;;;4.65;71.58
12536;BME280;6334;48.696;2.114;2023-01-27T08:31:08;100644.81;;;4.66;71.27
12536;BME280;6334;48.696;2.114;2023-01-27T08:33:37;100643.63;;;4.62;71.42
12536;BME280;6334;48.696;2.114;2023-01-27T08:36:16;100650.05;;;4.61;71.28
12536;BME280;6334;48.696;2.114;2023-01-27T08:38:43;100646.38;;;4.45;72.81
12536;BME280;6334;48.696;2.114;2023-01-27T08:41:20;100640.44;;;4.51;72.38
12536;BME280;6334;48.696;2.114;2023-01-27T08:43:47;100643.91;;;4.48;71.35
12536;BME280;6334;48.696;2.114;2023-01-27T08:46:17;100646.59;;;4.54;70.89
12536;BME280;6334;48.696;2.114;2023-01-27T08:48:48;100648.06;;;4.71;69.53
12536;BME280;6334;48.696;2.114;2023-01-27T08:51:18;100652.72;;;4.63;70.95
12536;BME280;6334;48.696;2.114;2023-01-27T08:53:49;100646.70;;;4.52;70.09
12536;BME280;6334;48.696;2.114;2023-01-27T08:56:19;100651.94;;;4.54;69.86
12536;BME280;6334;48.696;2.114;2023-01-27T08:58:49;100635.21;;;4.53;68.88
12536;BME280;6334;48.696;2.114;2023-01-27T09:01:21;100641.72;;;4.53;68.92
12536;BME280;6334;48.696;2.114;2023-01-27T09:03:51;100648.56;;;4.62;68.81
12536;BME280;6334;48.696;2.114;2023-01-27T09:06:22;100652.55;;;4.51;70.39
12536;BME280;6334;48.696;2.114;2023-01-27T09:08:52;100654.00;;;4.61;70.46
12536;BME280;6334;48.696;2.114;2023-01-27T09:11:39;100638.27;;;4.50;69.86
12536;BME280;6334;48.696;2.114;2023-01-27T09:14:08;100657.26;;;4.63;70.30
12536;BME280;6334;48.696;2.114;2023-01-27T09:16:39;100659.84;;;4.56;70.95
12536;BME280;6334;48.696;2.114;2023-01-27T09:19:09;100657.78;;;4.60;70.83
12536;BME280;6334;48.696;2.114;2023-01-27T09:21:40;100654.08;;;4.53;70.88
12536;BME280;6334;48.696;2.114;2023-01-27T09:24:10;100647.86;;;4.56;69.79
12536;BME280;6334;48.696;2.114;2023-01-27T09:26:41;100660.43;;;4.62;70.92
12536;BME280;6334;48.696;2.114;2023-01-27T09:29:11;100657.37;;;4.65;70.06
12536;BME280;6334;48.696;2.114;2023-01-27T09:31:42;100662.44;;;4.48;71.41
12536;BME280;6334;48.696;2.114;2023-01-27T09:34:12;100671.09;;;4.62;69.42
12536;BME280;6334;48.696;2.114;2023-01-27T09:36:44;100669.98;;;4.57;70.47
12536;BME280;6334;48.696;2.114;2023-01-27T09:39:13;100675.70;;;4.43;71.09
12536;BME280;6334;48.696;2.114;2023-01-27T09:42:12;100668.38;;;4.54;68.91
12536;BME280;6334;48.696;2.114;2023-01-27T09:44:59;100662.31;;;4.45;69.45
12536;BME280;6334;48.696;2.114;2023-01-27T09:53:11;100676.28;;;4.51;69.55
12536;BME280;6334;48.696;2.114;2023-01-27T09:55:53;100674.31;;;4.51;69.87
12536;BME280;6334;48.696;2.114;2023-01-27T09:58:31;100666.10;;;4.45;69.86
12536;BME280;6334;48.696;2.114;2023-01-27T10:01:09;100684.94;;;4.58;69.20
12536;BME280;6334;48.696;2.114;2023-01-27T10:12:51;100686.09;;;4.59;68.07
12536;BME280;6334;48.696;2.114;2023-01-27T10:14:49;100686.99;;;4.48;69.01
12536;BME280;6334;48.696;2.114;2023-01-27T10:20:31;100692.77;;;4.54;68.11
12536;BME280;6334;48.696;2.114;2023-01-27T10:25:51;100686.73;;;4.40;69.51
12536;BME280;6334;48.696;2.114;2023-01-27T10:28:20;100693.00;;;4.43;69.59
12536;BME280;6334;48.696;2.114;2023-01-27T10:31:10;100693.77;;;4.41;69.42
12536;BME280;6334;48.696;2.114;2023-01-27T10:33:17;100696.17;;;4.39;68.80
12536;BME280;6334;48.696;2.114;2023-01-27T10:35:56;100686.18;;;4.59;67.50
12536;BME280;6334;48.696;2.114;2023-01-27T10:38:45;100698.28;;;4.48;67.03
12536;BME280;6334;48.696;2.114;2023-01-27T10:41:35;100703.55;;;4.47;67.41
12536;BME280;6334;48.696;2.114;2023-01-27T10:44:23;100706.16;;;4.64;68.15
12536;BME280;6334;48.696;2.114;2023-01-27T10:46:59;100700.59;;;4.58;68.86
12536;BME280;6334;48.696;2.114;2023-01-27T10:49:40;100704.09;;;4.50;68.16
12536;BME280;6334;48.696;2.114;2023-01-27T10:52:10;100704.29;;;4.44;68.30
12536;BME280;6334;48.696;2.114;2023-01-27T10:54:41;100697.25;;;4.53;66.61
12536;BME280;6334;48.696;2.114;2023-01-27T10:57:16;100696.00;;;4.38;68.78
12536;BME280;6334;48.696;2.114;2023-01-27T10:59:56;100703.44;;;4.57;68.19
12536;BME280;6334;48.696;2.114;2023-01-27T11:03:16;100696.55;;;4.48;68.37
12536;BME280;6334;48.696;2.114;2023-01-27T11:05:19;100689.55;;;4.48;67.69
12536;BME280;6334;48.696;2.114;2023-01-27T11:07:48;100690.87;;;4.55;69.22
12536;BME280;6334;48.696;2.114;2023-01-27T11:10:18;100694.42;;;4.62;67.75
12536;BME280;6334;48.696;2.114;2023-01-27T11:12:50;100702.00;;;4.55;68.89
12536;BME280;6334;48.696;2.114;2023-01-27T11:15:31;100691.42;;;4.72;68.81
12536;BME280;6334;48.696;2.114;2023-01-27T11:18:17;100689.31;;;4.67;68.99
12536;BME280;6334;48.696;2.114;2023-01-27T11:20:46;100687.54;;;4.64;68.95
12536;BME280;6334;48.696;2.114;2023-01-27T11:23:27;100690.92;;;4.57;68.63
12536;BME280;6334;48.696;2.114;2023-01-27T11:26:05;100680.87;;;4.58;68.02
12536;BME280;6334;48.696;2.114;2023-01-27T11:28:55;100684.08;;;4.57;68.12
12536;BME280;6334;48.696;2.114;2023-01-27T11:34:24;100689.14;;;4.52;69.42
12536;BME280;6334;48.696;2.114;2023-01-27T11:36:51;100682.59;;;4.46;68.76
12536;BME280;6334;48.696;2.114;2023-01-27T11:39:21;100686.38;;;4.50;67.99
12536;BME280;6334;48.696;2.114;2023-01-27T11:41:53;100677.65;;;4.50;68.47
12536;BME280;6334;48.696;2.114;2023-01-27T11:44:26;100668.55;;;4.55;68.69
12536;BME280;6334;48.696;2.114;2023-01-27T11:46:55;100669.62;;;4.60;68.01
12536;BME280;6334;48.696;2.114;2023-01-27T11:49:39;100667.19;;;4.64;68.81
12536;BME280;6334;48.696;2.114;2023-01-27T11:52:16;100667.93;;;4.72;68.50
12536;BME280;6334;48.696;2.114;2023-01-27T11:54:38;100657.63;;;4.83;68.48
12536;BME280;6334;48.696;2.114;2023-01-27T11:57:09;100674.44;;;4.87;67.91
12536;BME280;6334;48.696;2.114;2023-01-27T11:59:37;100666.94;;;4.68;68.59
12536;BME280;6334;48.696;2.114;2023-01-27T12:09:59;100667.64;;;4.62;68.00
12536;BME280;6334;48.696;2.114;2023-01-27T12:12:29;100667.63;;;4.66;68.94
12536;BME280;6334;48.696;2.114;2023-01-27T12:15:00;100664.27;;;4.78;68.25
12536;BME280;6334;48.696;2.114;2023-01-27T12:17:31;100663.69;;;4.71;68.51
12536;BME280;6334;48.696;2.114;2023-01-27T12:20:29;100664.38;;;4.72;68.83
12536;BME280;6334;48.696;2.114;2023-01-27T12:22:58;100655.03;;;4.55;68.51
12536;BME280;6334;48.696;2.114;2023-01-27T12:25:28;100659.36;;;4.65;69.02
12536;BME280;6334;48.696;2.114;2023-01-27T12:27:58;100655.10;;;4.43;68.00
12536;BME280;6334;48.696;2.114;2023-01-27T12:30:31;100650.99;;;4.66;68.80
12536;BME280;6334;48.696;2.114;2023-01-27T12:33:09;100646.00;;;4.65;68.77
12536;BME280;6334;48.696;2.114;2023-01-27T12:35:34;100642.75;;;4.62;68.52
12536;BME280;6334;48.696;2.114;2023-01-27T12:38:23;100642.67;;;4.59;68.57
12536;BME280;6334;48.696;2.114;2023-01-27T12:41:00;100648.52;;;4.73;69.75
12536;BME280;6334;48.696;2.114;2023-01-27T12:43:29;100648.06;;;4.68;68.76
12536;BME280;6334;48.696;2.114;2023-01-27T12:46:35;100636.53;;;4.56;69.19
12536;BME280;6334;48.696;2.114;2023-01-27T12:48:48;100643.17;;;4.59;68.57
12536;BME280;6334;48.696;2.114;2023-01-27T12:51:21;100647.16;;;4.64;69.40
12536;BME280;6334;48.696;2.114;2023-01-27T12:53:54;100640.41;;;4.57;68.61
12536;BME280;6334;48.696;2.114;2023-01-27T12:56:22;100639.33;;;4.60;69.55
12536;BME280;6334;48.696;2.114;2023-01-27T12:58:57;100635.70;;;4.49;69.03
12536;BME280;6334;48.696;2.114;2023-01-27T13:01:34;100644.97;;;4.62;69.45
12536;BME280;6334;48.696;2.114;2023-01-27T13:04:19;100632.24;;;4.49;69.92
12536;BME280;6334;48.696;2.114;2023-01-27T13:06:49;100643.58;;;4.59;69.37
12536;BME280;6334;48.696;2.114;2023-01-27T13:12:28;100638.55;;;4.58;69.08
12536;BME280;6334;48.696;2.114;2023-01-27T13:15:07;100638.22;;;4.63;68.93
12536;BME280;6334;48.696;2.114;2023-01-27T13:17:43;100630.72;;;4.59;69.42
12536;BME280;6334;48.696;2.114;2023-01-27T13:22:50;100640.05;;;4.30;70.11
12536;BME280;6334;48.696;2.114;2023-01-27T13:25:22;100640.61;;;4.59;70.25
12536;BME280;6334;48.696;2.114;2023-01-27T13:27:49;100638.14;;;4.55;70.29
12536;BME280;6334;48.696;2.114;2023-01-27T13:30:22;100643.08;;;4.55;69.92
12536;BME280;6334;48.696;2.114;2023-01-27T13:32:51;100642.51;;;4.63;70.07
12536;BME280;6334;48.696;2.114;2023-01-27T13:35:30;100636.44;;;4.53;70.00
12536;BME280;6334;48.696;2.114;2023-01-27T13:38:17;100638.09;;;4.53;69.35
12536;BME280;6334;48.696;2.114;2023-01-27T13:40:44;100634.59;;;4.44;70.42
12536;BME280;6334;48.696;2.114;2023-01-27T13:43:30;100633.77;;;4.43;70.75
12536;BME280;6334;48.696;2.114;2023-01-27T13:48:54;100634.18;;;4.62;69.93
12536;BME280;6334;48.696;2.114;2023-01-27T13:51:27;100630.76;;;4.52;69.73
12536;BME280;6334;48.696;2.114;2023-01-27T13:54:03;100637.84;;;4.53;70.42
12536;BME280;6334;48.696;2.114;2023-01-27T13:56:38;100631.75;;;4.76;69.56
12536;BME280;6334;48.696;2.114;2023-01-27T13:59:23;100639.41;;;4.64;70.07
12536;BME280;6334;48.696;2.114;2023-01-27T14:05:02;100628.41;;;4.35;71.40
12536;BME280;6334;48.696;2.114;2023-01-27T14:10:24;100636.53;;;4.57;71.09
12536;BME280;6334;48.696;2.114;2023-01-27T14:15:45;100650.45;;;4.49;70.48
12536;BME280;6334;48.696;2.114;2023-01-27T14:18:16;100644.48;;;4.58;70.72
12536;BME280;6334;48.696;2.114;2023-01-27T14:20:54;100657.95;;;4.53;70.87
12536;BME280;6334;48.696;2.114;2023-01-27T14:31:15;100668.20;;;4.22;71.17
12536;BME280;6334;48.696;2.114;2023-01-27T14:34:22;100675.58;;;4.42;71.09
12536;BME280;6334;48.696;2.114;2023-01-27T14:36:59;100677.04;;;4.31;69.55